Time;durP1;ratioP1;P1;durP2;ratioP2;P2;SDS_P1;SDS_P2;PMS_P1;PMS_P2;Temp;Humidity;BMP_temperature;BMP_pressure;BME280_temperature;BME280_humidity;BME280_pressure;Samples;Min_cycle;Max_cycle;Signal;HPM_P1;HPM_P2
2024/03/05 00:01:39;;;;;;;22.75;18.30;;;8.10;99.90;;;;;;5017646;28;20399;-83
2024/03/05 00:04:05;;;;;;;24.42;19.77;;;8.10;99.90;;;;;;5031164;28;20517;-84
2024/03/05 00:06:31;;;;;;;27.10;19.88;;;7.90;99.90;;;;;;5013951;28;20433;-83
2024/03/05 00:08:56;;;;;;;24.90;20.63;;;7.90;99.90;;;;;;5024891;28;20391;-83
2024/03/05 00:11:22;;;;;;;24.75;21.15;;;9.00;99.90;;;;;;5018546;28;20383;-83
2024/03/05 00:13:47;;;;;;;25.08;19.77;;;7.70;99.90;;;;;;5018328;28;20769;-83
2024/03/05 00:16:13;;;;;;;23.85;19.75;;;7.80;99.90;;;;;;5031097;28;20399;-83
2024/03/05 00:18:39;;;;;;;25.30;21.30;;;7.60;99.90;;;;;;5029983;28;20418;-83
2024/03/05 00:21:04;;;;;;;25.27;22.20;;;7.60;99.90;;;;;;5016349;28;20412;-83
2024/03/05 00:23:30;;;;;;;25.10;20.30;;;7.60;99.90;;;;;;5037387;28;20406;-84
2024/03/05 00:25:56;;;;;;;24.13;21.50;;;7.60;99.90;;;;;;5036297;28;20430;-83
2024/03/05 00:28:22;;;;;;;28.42;23.60;;;7.80;99.90;;;;;;5037332;28;20438;-83
2024/03/05 00:30:48;;;;;;;26.97;21.70;;;7.80;99.90;;;;;;5026467;28;20437;-84
2024/03/05 00:33:14;;;;;;;26.33;21.47;;;7.70;99.90;;;;;;5028549;28;20414;-84
2024/03/05 00:35:39;;;;;;;26.17;21.40;;;7.70;99.90;;;;;;5026724;28;20410;-83
2024/03/05 00:38:04;;;;;;;25.80;22.60;;;7.70;99.90;;;;;;5010855;28;20394;-83
2024/03/05 00:40:30;;;;;;;28.77;22.30;;;7.70;99.90;;;;;;5025885;28;20402;-83
2024/03/05 00:42:56;;;;;;;27.30;22.83;;;7.70;99.90;;;;;;5016901;28;20779;-84
2024/03/05 00:45:22;;;;;;;29.88;22.90;;;7.80;99.90;;;;;;5024297;28;20471;-84
2024/03/05 00:47:47;;;;;;;25.23;21.00;;;7.80;99.90;;;;;;5027130;28;20418;-84
2024/03/05 00:50:13;;;;;;;26.00;20.50;;;7.70;99.90;;;;;;5030578;28;20405;-84
2024/03/05 00:52:39;;;;;;;25.55;21.33;;;7.80;99.90;;;;;;5038673;28;20460;-84
2024/03/05 00:55:08;;;;;;;22.90;19.48;;;7.90;99.90;;;;;;5025072;28;20387;-84
2024/03/05 00:57:35;;;;;;;23.35;20.08;;;7.80;99.90;;;;;;5027958;28;20383;-84
2024/03/05 01:00:00;;;;;;;21.73;19.30;;;7.80;99.90;;;;;;5023671;28;20478;-83
2024/03/05 01:02:26;;;;;;;22.48;19.05;;;7.80;99.90;;;;;;5034415;28;20433;-84
2024/03/05 01:04:52;;;;;;;26.17;21.20;;;7.80;99.90;;;;;;5037104;28;20407;-83
2024/03/05 01:07:18;;;;;;;26.13;20.90;;;7.90;99.90;;;;;;5030391;28;20413;-84
2024/03/05 01:09:44;;;;;;;24.20;20.40;;;7.90;99.90;;;;;;5024101;28;20411;-85
2024/03/05 01:12:09;;;;;;;24.30;20.00;;;7.80;99.90;;;;;;5035856;28;20395;-83
2024/03/05 01:14:35;;;;;;;24.10;19.02;;;7.90;99.90;;;;;;5021337;28;20762;-84
2024/03/05 01:17:04;;;;;;;23.33;19.63;;;7.80;99.90;;;;;;5020676;28;20388;-84
2024/03/05 01:19:30;;;;;;;24.80;20.30;;;7.70;99.90;;;;;;5035877;28;20375;-84
2024/03/05 01:21:58;;;;;;;23.42;20.50;;;7.80;99.90;;;;;;5020090;28;20399;-83
2024/03/05 01:24:25;;;;;;;25.35;20.55;;;7.90;99.90;;;;;;5019406;28;20675;-84
2024/03/05 01:26:51;;;;;;;25.38;20.80;;;7.80;99.90;;;;;;5020682;28;20478;-84
2024/03/05 01:29:17;;;;;;;26.52;21.75;;;7.70;99.90;;;;;;5038697;28;20414;-83
2024/03/05 01:31:44;;;;;;;25.35;20.40;;;7.70;99.90;;;;;;5037741;28;20399;-83
2024/03/05 01:34:10;;;;;;;26.20;21.27;;;7.50;99.90;;;;;;5037707;28;20874;-84
2024/03/05 01:36:36;;;;;;;25.92;22.25;;;7.70;99.90;;;;;;5031797;28;20398;-84
2024/03/05 01:39:04;;;;;;;26.17;20.50;;;7.90;99.90;;;;;;5039370;28;20804;-83
2024/03/05 01:41:29;;;;;;;23.88;19.95;;;8.10;99.90;;;;;;5020693;28;20461;-84
2024/03/05 01:43:55;;;;;;;26.10;20.60;;;7.90;99.90;;;;;;5037018;28;20439;-83
2024/03/05 01:46:21;;;;;;;25.30;20.67;;;7.80;99.90;;;;;;5032056;28;20393;-83
2024/03/05 01:48:47;;;;;;;24.00;19.60;;;7.80;99.90;;;;;;5012202;28;20493;-83
2024/03/05 01:51:15;;;;;;;21.20;18.90;;;7.90;99.90;;;;;;5032720;28;20387;-84
2024/03/05 01:53:43;;;;;;;24.25;21.10;;;7.90;99.90;;;;;;5021425;28;20427;-83
2024/03/05 01:56:10;;;;;;;23.03;20.13;;;7.80;99.90;;;;;;5016502;28;20461;-83
2024/03/05 01:58:38;;;;;;;22.45;20.02;;;7.90;99.90;;;;;;5032810;28;20388;-83
2024/03/05 02:01:06;;;;;;;22.75;19.13;;;7.80;99.90;;;;;;5039381;28;20394;-83
2024/03/05 02:03:35;;;;;;;23.15;19.67;;;7.90;99.90;;;;;;5020505;28;20406;-83
2024/03/05 02:06:01;;;;;;;27.67;21.20;;;7.80;99.90;;;;;;5041274;28;20474;-83
2024/03/05 02:08:27;;;;;;;23.70;20.67;;;7.80;99.90;;;;;;5040700;28;20406;-83
2024/03/05 02:10:53;;;;;;;25.90;20.83;;;7.70;99.90;;;;;;5017446;28;20455;-83
2024/03/05 02:13:19;;;;;;;25.23;21.67;;;7.70;99.90;;;;;;5026904;28;20777;-83
2024/03/05 02:15:44;;;;;;;25.40;20.57;;;7.70;99.90;;;;;;5021233;28;20406;-83
2024/03/05 02:18:11;;;;;;;27.03;21.07;;;7.70;99.90;;;;;;5028268;28;20395;-83
2024/03/05 02:20:37;;;;;;;24.60;21.58;;;7.60;99.90;;;;;;5028004;28;20391;-83
2024/03/05 02:23:03;;;;;;;24.43;20.43;;;7.70;99.90;;;;;;5024270;28;20402;-84
2024/03/05 02:25:31;;;;;;;23.13;19.80;;;7.80;99.90;;;;;;5038014;28;20405;-83
2024/03/05 02:27:57;;;;;;;24.42;19.63;;;7.70;99.90;;;;;;5020257;28;20405;-83
2024/03/05 02:30:23;;;;;;;23.67;19.80;;;7.60;99.90;;;;;;5005512;28;20440;-83
2024/03/05 02:32:48;;;;;;;24.30;20.23;;;7.70;99.90;;;;;;5015469;28;20403;-83
2024/03/05 02:35:14;;;;;;;23.60;19.70;;;7.60;99.90;;;;;;5039043;28;20424;-83
2024/03/05 02:37:41;;;;;;;22.47;18.30;;;7.60;99.90;;;;;;5043777;28;20410;-83
2024/03/05 02:40:10;;;;;;;20.10;16.45;;;7.80;99.90;;;;;;5037555;28;20399;-85
2024/03/05 02:42:36;;;;;;;19.00;16.08;;;7.90;99.90;;;;;;5019500;28;20404;-84
2024/03/05 02:45:05;;;;;;;18.27;15.65;;;7.70;99.90;;;;;;5046389;28;20434;-85
2024/03/05 02:47:41;;;;;;;17.20;14.38;;;8.00;99.90;;;;;;5042124;28;20392;-84
2024/03/05 02:50:08;;;;;;;15.25;13.65;;;7.90;99.90;;;;;;5038275;28;20472;-84
2024/03/05 02:52:34;;;;;;;15.50;13.05;;;8.10;99.90;;;;;;5045574;28;20902;-84
2024/03/05 02:55:00;;;;;;;14.27;12.48;;;8.00;99.90;;;;;;5045877;28;20400;-84
2024/03/05 02:57:26;;;;;;;15.00;12.50;;;8.00;99.90;;;;;;5025616;28;20413;-84
2024/03/05 02:59:52;;;;;;;15.75;13.18;;;8.20;99.90;;;;;;5036131;28;20395;-84
2024/03/05 03:02:20;;;;;;;14.73;12.13;;;8.10;99.90;;;;;;5019561;28;20388;-83
2024/03/05 03:04:46;;;;;;;14.25;12.23;;;8.00;99.90;;;;;;5017895;28;20435;-84
2024/03/05 03:07:12;;;;;;;13.82;12.27;;;7.60;99.90;;;;;;5005387;28;20392;-84
2024/03/05 03:09:38;;;;;;;12.17;10.87;;;8.00;99.90;;;;;;5010176;28;20388;-83
2024/03/05 03:12:05;;;;;;;14.02;11.43;;;8.00;99.90;;;;;;5031647;28;20489;-84
2024/03/05 03:14:30;;;;;;;11.77;9.60;;;8.10;99.90;;;;;;5020954;28;20452;-83
2024/03/05 03:16:56;;;;;;;12.00;9.77;;;8.20;99.90;;;;;;5021206;28;20653;-84
2024/03/05 03:19:22;;;;;;;12.10;9.70;;;8.20;99.90;;;;;;5034467;28;20398;-84
2024/03/05 03:21:48;;;;;;;11.40;9.80;;;8.20;99.90;;;;;;5024624;28;20399;-83
2024/03/05 03:24:14;;;;;;;10.27;8.70;;;8.30;99.90;;;;;;5016383;28;20405;-84
2024/03/05 03:26:39;;;;;;;11.02;9.00;;;8.20;99.90;;;;;;5022981;28;20488;-83
2024/03/05 03:29:11;;;;;;;10.82;8.90;;;8.10;99.90;;;;;;5025886;28;20384;-83
2024/03/05 03:31:39;;;;;;;10.65;8.98;;;8.20;99.90;;;;;;5036947;28;20471;-84
2024/03/05 03:34:05;;;;;;;10.35;8.80;;;8.30;99.90;;;;;;5013053;28;20432;-83
2024/03/05 03:36:31;;;;;;;9.93;8.80;;;8.20;99.90;;;;;;5023567;28;20391;-84
2024/03/05 03:38:58;;;;;;;10.23;8.20;;;8.30;99.90;;;;;;5042742;28;20428;-83
2024/03/05 03:41:24;;;;;;;10.30;9.17;;;8.10;99.90;;;;;;5041163;28;20419;-84
2024/03/05 03:43:50;;;;;;;10.00;7.93;;;8.30;99.90;;;;;;5019352;28;20416;-84
2024/03/05 03:46:15;;;;;;;9.02;8.00;;;7.80;99.90;;;;;;5028487;28;20385;-84
2024/03/05 03:48:41;;;;;;;9.15;7.95;;;8.40;99.90;;;;;;5042357;28;20754;-84
2024/03/05 03:51:07;;;;;;;10.00;8.30;;;8.20;99.90;;;;;;5026839;28;20373;-83
2024/03/05 03:53:36;;;;;;;9.45;7.28;;;8.30;99.90;;;;;;5042434;28;20383;-84
2024/03/05 03:56:03;;;;;;;8.88;7.88;;;9.50;99.90;;;;;;5025661;28;20379;-83
2024/03/05 03:58:30;;;;;;;8.80;7.68;;;8.50;99.90;;;;;;5033626;28;20380;-83
2024/03/05 04:00:56;;;;;;;9.00;8.10;;;8.40;99.90;;;;;;5018462;28;20480;-83
2024/03/05 04:03:21;;;;;;;10.37;8.07;;;8.10;99.90;;;;;;5037872;28;20403;-83
2024/03/05 04:05:47;;;;;;;8.07;6.80;;;8.30;99.90;;;;;;5038858;28;20426;-84
2024/03/05 04:08:12;;;;;;;9.30;7.75;;;8.50;99.90;;;;;;5020723;28;20397;-83
2024/03/05 04:10:38;;;;;;;9.07;7.20;;;8.60;99.90;;;;;;5020052;28;20398;-82
2024/03/05 04:13:03;;;;;;;10.27;7.73;;;8.60;99.90;;;;;;5037563;28;20405;-84
2024/03/05 04:15:29;;;;;;;11.33;8.17;;;8.50;99.90;;;;;;5020405;28;20774;-84
2024/03/05 04:17:57;;;;;;;9.52;7.90;;;8.60;99.90;;;;;;5019371;28;20422;-83
2024/03/05 04:20:23;;;;;;;10.10;7.90;;;8.60;99.90;;;;;;5013571;28;20415;-83
2024/03/05 04:22:48;;;;;;;10.15;7.75;;;8.50;99.90;;;;;;5051275;28;20775;-83
2024/03/05 04:25:14;;;;;;;9.32;8.32;;;8.50;99.90;;;;;;5011603;28;20461;-83
2024/03/05 04:27:45;;;;;;;9.75;8.48;;;8.70;99.90;;;;;;5020565;28;20392;-83
2024/03/05 04:30:14;;;;;;;9.25;8.13;;;8.50;99.90;;;;;;5015234;28;20399;-83
2024/03/05 04:32:46;;;;;;;10.83;8.30;;;8.50;99.90;;;;;;5018181;28;20411;-84
2024/03/05 04:35:13;;;;;;;11.63;9.00;;;8.50;99.90;;;;;;5054976;28;20403;-83
2024/03/05 04:37:40;;;;;;;10.75;8.38;;;8.50;99.90;;;;;;5040326;28;20421;-84
2024/03/05 04:40:10;;;;;;;10.50;9.30;;;8.30;99.90;;;;;;5025827;28;20403;-84
2024/03/05 04:42:36;;;;;;;10.50;9.07;;;8.40;99.90;;;;;;5038365;28;20403;-85
2024/03/05 04:45:01;;;;;;;12.02;9.38;;;8.30;99.90;;;;;;5017986;28;20434;-83
2024/03/05 04:47:27;;;;;;;12.17;9.10;;;8.40;99.90;;;;;;5038775;28;20383;-83
2024/03/05 04:49:52;;;;;;;12.13;9.80;;;8.40;99.90;;;;;;5038716;28;20426;-83
2024/03/05 04:52:18;;;;;;;11.60;9.60;;;8.30;99.90;;;;;;5031094;28;20387;-83
2024/03/05 04:54:44;;;;;;;10.82;9.38;;;8.20;99.90;;;;;;5022748;28;20795;-83
2024/03/05 04:57:10;;;;;;;12.02;9.38;;;8.30;99.90;;;;;;5022624;28;20390;-82
2024/03/05 04:59:36;;;;;;;11.50;8.90;;;8.30;99.90;;;;;;5022093;28;20391;-82
2024/03/05 05:02:02;;;;;;;10.98;9.00;;;8.20;99.90;;;;;;5021442;28;20459;-83
2024/03/05 05:04:27;;;;;;;9.80;8.30;;;8.20;99.90;;;;;;5031018;28;20434;-82
2024/03/05 05:06:53;;;;;;;10.07;8.98;;;8.00;99.90;;;;;;5038576;28;20459;-83
2024/03/05 05:09:22;;;;;;;9.53;8.10;;;8.10;99.90;;;;;;5037484;28;20538;-84
2024/03/05 05:11:48;;;;;;;10.45;8.43;;;8.20;99.90;;;;;;5018760;28;20899;-84
2024/03/05 05:14:13;;;;;;;9.18;7.80;;;8.00;99.90;;;;;;5020366;28;20406;-84
2024/03/05 05:16:39;;;;;;;9.07;7.47;;;7.90;99.90;;;;;;5039292;28;20935;-83
2024/03/05 05:19:04;;;;;;;9.80;7.85;;;7.90;99.90;;;;;;5020595;28;20474;-85
2024/03/05 05:21:31;;;;;;;9.20;7.25;;;7.90;99.90;;;;;;5037945;28;20402;-84
2024/03/05 05:23:57;;;;;;;7.80;6.78;;;7.80;99.90;;;;;;5038684;28;20403;-84
2024/03/05 05:26:23;;;;;;;9.27;7.38;;;8.10;99.90;;;;;;5013631;28;20387;-83
2024/03/05 05:28:50;;;;;;;7.28;6.47;;;8.10;99.90;;;;;;5039121;28;20391;-84
2024/03/05 05:31:26;;;;;;;8.18;6.30;;;7.90;99.90;;;;;;5020179;28;20486;-84
2024/03/05 05:33:52;;;;;;;6.20;5.60;;;8.10;99.90;;;;;;5018784;28;20395;-84
2024/03/05 05:36:17;;;;;;;7.60;6.05;;;7.90;99.90;;;;;;5020918;28;20411;-84
2024/03/05 05:38:44;;;;;;;6.50;5.70;;;7.90;99.90;;;;;;5021226;28;20383;-83
2024/03/05 05:41:09;;;;;;;6.50;5.30;;;7.90;99.90;;;;;;5037861;28;20478;-84
2024/03/05 05:43:35;;;;;;;6.17;5.53;;;7.80;99.90;;;;;;5087825;22;20962;-81
2024/03/05 05:46:04;;;;;;;5.75;4.80;;;7.80;99.90;;;;;;5067609;28;20407;-81
2024/03/05 05:48:31;;;;;;;4.95;4.45;;;7.80;99.90;;;;;;5072164;28;20480;-80
2024/03/05 05:51:00;;;;;;;6.18;5.45;;;7.70;99.90;;;;;;5074334;28;20391;-81
2024/03/05 05:53:26;;;;;;;5.30;4.80;;;7.70;99.90;;;;;;5055574;28;20423;-80
2024/03/05 05:55:52;;;;;;;5.72;4.68;;;7.70;99.90;;;;;;5050003;28;20393;-79
2024/03/05 05:58:18;;;;;;;5.53;4.93;;;7.60;99.90;;;;;;5052865;28;20457;-80
2024/03/05 06:00:44;;;;;;;5.07;4.57;;;7.50;99.90;;;;;;5052986;28;20412;-79
2024/03/05 06:03:11;;;;;;;5.10;4.60;;;7.50;99.90;;;;;;5054941;28;20390;-81
2024/03/05 06:05:37;;;;;;;6.10;5.00;;;7.40;99.90;;;;;;5062266;28;20887;-81
2024/03/05 06:08:04;;;;;;;6.05;4.65;;;7.40;99.90;;;;;;5062181;28;20451;-80
2024/03/05 06:10:30;;;;;;;6.15;5.20;;;7.40;99.90;;;;;;5084365;28;20379;-80
2024/03/05 06:12:56;;;;;;;5.20;4.70;;;7.20;99.90;;;;;;5071604;28;20406;-79
2024/03/05 06:15:21;;;;;;;5.85;4.70;;;7.30;99.90;;;;;;5072396;28;20405;-79
2024/03/05 06:17:49;;;;;;;5.60;5.00;;;7.30;99.90;;;;;;5053722;28;20387;-81
2024/03/05 06:20:15;;;;;;;6.28;4.60;;;7.30;99.90;;;;;;5049439;28;20389;-80
2024/03/05 06:22:42;;;;;;;5.38;4.45;;;7.30;99.90;;;;;;5041756;28;20397;-81
2024/03/05 06:25:09;;;;;;;6.25;4.63;;;7.40;99.90;;;;;;5051265;28;20413;-81
2024/03/05 06:27:36;;;;;;;4.90;4.35;;;7.30;99.90;;;;;;5041190;28;20405;-82
2024/03/05 06:30:03;;;;;;;5.20;4.70;;;7.30;99.90;;;;;;5052119;28;20469;-81
2024/03/05 06:32:28;;;;;;;4.60;4.20;;;7.30;99.90;;;;;;5051045;28;20397;-81
2024/03/05 06:34:54;;;;;;;5.00;4.10;;;7.30;99.90;;;;;;5041819;28;20397;-81
2024/03/05 06:37:19;;;;;;;4.67;4.20;;;7.40;99.90;;;;;;5041879;28;20385;-81
2024/03/05 06:39:46;;;;;;;4.03;3.63;;;7.30;99.90;;;;;;5036748;28;20398;-81
2024/03/05 06:42:13;;;;;;;4.70;3.90;;;7.40;99.90;;;;;;5049369;28;20495;-81
2024/03/05 06:44:41;;;;;;;4.50;4.10;;;7.40;99.90;;;;;;5053970;28;20405;-81
2024/03/05 06:47:09;;;;;;;4.30;3.90;;;7.40;99.90;;;;;;5053169;28;20780;-81
2024/03/05 06:49:39;;;;;;;5.93;4.47;;;7.30;99.90;;;;;;5047189;28;20473;-82
2024/03/05 06:57:36;;;;;;;2.40;2.20;;;6.60;99.90;;;;;;5052417;28;20382;-80
2024/03/05 07:00:15;;;;;;;2.20;2.00;;;7.60;99.90;;;;;;5055278;28;20383;-79
2024/03/05 07:02:41;;;;;;;2.47;2.20;;;7.60;99.90;;;;;;5064893;28;20398;-80
2024/03/05 07:05:07;;;;;;;2.15;1.95;;;7.50;99.90;;;;;;5058406;28;20467;-81
2024/03/05 07:07:33;;;;;;;2.38;2.17;;;7.50;99.90;;;;;;5056910;28;20389;-81
2024/03/05 07:09:59;;;;;;;2.80;2.47;;;7.60;99.90;;;;;;5054375;28;20393;-81
2024/03/05 07:12:25;;;;;;;3.20;2.22;;;7.50;99.90;;;;;;5055525;28;20392;-81
2024/03/05 07:14:50;;;;;;;2.40;2.10;;;7.60;99.90;;;;;;5056544;28;20382;-81
2024/03/05 07:17:16;;;;;;;3.00;2.60;;;7.60;99.90;;;;;;5058146;28;20389;-81
2024/03/05 07:19:41;;;;;;;2.85;2.45;;;7.60;99.90;;;;;;5056423;28;20392;-81
2024/03/05 07:22:07;;;;;;;3.00;2.40;;;7.70;99.90;;;;;;5053039;28;20407;-81
2024/03/05 07:24:33;;;;;;;2.20;2.00;;;7.60;99.90;;;;;;5051118;28;20407;-81
2024/03/05 07:26:58;;;;;;;2.08;1.88;;;7.60;99.90;;;;;;5049330;28;20415;-81
2024/03/05 07:29:24;;;;;;;2.57;2.10;;;7.60;99.90;;;;;;5057204;28;20389;-82
2024/03/05 07:31:49;;;;;;;2.80;2.20;;;7.60;99.90;;;;;;5063832;28;20428;-81
2024/03/05 07:34:15;;;;;;;2.37;2.17;;;7.60;99.90;;;;;;5055044;28;20432;-81
2024/03/05 07:36:43;;;;;;;2.50;2.00;;;7.70;99.90;;;;;;5053255;28;20966;-81
2024/03/05 07:39:11;;;;;;;2.15;1.95;;;7.70;99.90;;;;;;5054530;28;20765;-81
2024/03/05 07:41:39;;;;;;;3.20;1.90;;;7.70;99.90;;;;;;5052167;28;20442;-81
2024/03/05 07:44:04;;;;;;;2.60;2.13;;;7.70;99.90;;;;;;5055766;28;20421;-81
2024/03/05 07:46:32;;;;;;;2.20;1.60;;;7.60;99.90;;;;;;5061218;28;20409;-81
2024/03/05 07:48:58;;;;;;;2.00;1.80;;;7.70;99.90;;;;;;5051997;28;20396;-81
2024/03/05 07:51:24;;;;;;;1.70;1.60;;;7.80;99.90;;;;;;5045515;28;20387;-81
2024/03/05 07:53:49;;;;;;;1.90;1.70;;;7.70;99.90;;;;;;5053890;28;20464;-80
2024/03/05 07:56:15;;;;;;;1.92;1.83;;;7.80;99.90;;;;;;5044643;28;20465;-81
2024/03/05 07:58:40;;;;;;;2.00;1.67;;;7.80;99.90;;;;;;5043243;28;20391;-81
2024/03/05 08:01:07;;;;;;;1.80;1.70;;;7.80;99.90;;;;;;5044154;28;20432;-82
2024/03/05 08:03:33;;;;;;;1.75;1.50;;;7.80;99.90;;;;;;5045652;28;20408;-81
2024/03/05 08:05:58;;;;;;;3.13;1.80;;;7.80;99.90;;;;;;5053425;28;20405;-80
2024/03/05 08:08:25;;;;;;;2.85;1.58;;;7.80;99.90;;;;;;5054350;28;20473;-81
2024/03/05 08:10:51;;;;;;;2.20;1.50;;;7.70;99.90;;;;;;5054468;28;20503;-81
2024/03/05 08:13:19;;;;;;;2.42;1.70;;;7.90;99.90;;;;;;5051430;28;20401;-80
2024/03/05 08:15:45;;;;;;;1.55;1.45;;;7.80;99.90;;;;;;5049476;28;20497;-81
2024/03/05 08:18:12;;;;;;;1.47;1.30;;;7.80;99.90;;;;;;5053157;28;20478;-80
2024/03/05 08:20:39;;;;;;;1.60;1.30;;;7.90;99.90;;;;;;5053060;28;20437;-82
2024/03/05 08:23:05;;;;;;;2.10;1.63;;;7.80;99.90;;;;;;5047254;28;20428;-81
2024/03/05 08:25:30;;;;;;;2.60;2.40;;;7.90;99.90;;;;;;5045833;28;20820;-81
2024/03/05 08:27:59;;;;;;;3.30;2.77;;;7.60;99.90;;;;;;5047812;28;20398;-81
2024/03/05 08:30:31;;;;;;;2.38;2.10;;;7.80;99.90;;;;;;5058184;28;20445;-81
2024/03/05 08:32:57;;;;;;;2.58;2.38;;;7.70;99.90;;;;;;5054633;28;20385;-81
2024/03/05 08:35:25;;;;;;;3.60;2.58;;;7.80;99.90;;;;;;5056909;28;20393;-82
2024/03/05 08:37:51;;;;;;;2.95;2.08;;;7.90;99.90;;;;;;5061210;28;20410;-81
2024/03/05 08:40:18;;;;;;;2.38;1.70;;;7.90;99.90;;;;;;5060420;28;20404;-82
2024/03/05 08:42:46;;;;;;;2.30;1.83;;;7.90;99.90;;;;;;5065943;28;20396;-81
2024/03/05 08:45:14;;;;;;;1.88;1.67;;;8.10;99.90;;;;;;5074392;28;20503;-82
2024/03/05 08:47:45;;;;;;;1.23;1.13;;;8.20;99.90;;;;;;5055072;28;20421;-82
2024/03/05 08:50:12;;;;;;;2.15;1.40;;;8.00;99.90;;;;;;5056472;28;20491;-82
2024/03/05 08:52:38;;;;;;;1.10;0.90;;;7.90;99.90;;;;;;5075396;28;20814;-81
2024/03/05 08:55:10;;;;;;;1.30;0.90;;;8.10;99.90;;;;;;5073857;28;20376;-82
2024/03/05 08:57:37;;;;;;;0.77;0.77;;;8.10;99.90;;;;;;5074043;28;20879;-82
2024/03/05 09:00:03;;;;;;;1.10;1.00;;;8.20;99.90;;;;;;5074539;28;20808;-81
2024/03/05 09:02:30;;;;;;;1.10;0.80;;;8.30;99.90;;;;;;5073015;28;20407;-82
2024/03/05 09:04:55;;;;;;;2.10;1.00;;;8.20;99.90;;;;;;5074339;28;20453;-81
2024/03/05 09:07:21;;;;;;;0.90;0.80;;;8.30;99.90;;;;;;5073229;28;20437;-81
2024/03/05 09:09:47;;;;;;;0.80;0.80;;;8.30;99.90;;;;;;5074033;28;20506;-81
2024/03/05 09:12:13;;;;;;;1.30;0.80;;;8.20;99.90;;;;;;5072075;28;20383;-81
2024/03/05 09:14:42;;;;;;;1.10;0.90;;;8.20;99.90;;;;;;5073559;28;20384;-81
2024/03/05 09:17:09;;;;;;;1.08;0.98;;;8.20;99.90;;;;;;5072286;28;20391;-81
2024/03/05 09:19:35;;;;;;;0.70;0.65;;;8.20;99.90;;;;;;5072760;28;20498;-81
2024/03/05 09:22:04;;;;;;;1.30;1.20;;;8.30;99.90;;;;;;5072696;28;20396;-81
2024/03/05 09:24:31;;;;;;;1.70;1.10;;;8.30;99.90;;;;;;5070494;28;20494;-81
2024/03/05 09:27:00;;;;;;;1.67;1.30;;;8.40;99.90;;;;;;5054878;28;20397;-82
2024/03/05 09:29:26;;;;;;;1.60;1.25;;;8.20;99.90;;;;;;5056161;28;20408;-80
2024/03/05 09:31:52;;;;;;;2.05;1.50;;;8.10;99.90;;;;;;5055899;28;20386;-82
2024/03/05 09:34:18;;;;;;;1.40;1.30;;;8.30;99.90;;;;;;5058552;28;20396;-81
2024/03/05 09:36:44;;;;;;;1.77;1.40;;;8.20;99.90;;;;;;5057800;28;20389;-80
2024/03/05 09:39:09;;;;;;;2.13;1.80;;;8.20;99.90;;;;;;5061183;28;20400;-79
2024/03/05 09:41:44;;;;;;;1.60;1.50;;;8.10;99.90;;;;;;5064999;28;20796;-81
2024/03/05 09:44:11;;;;;;;1.83;1.50;;;8.30;99.90;;;;;;5063514;28;20671;-81
2024/03/05 09:46:45;;;;;;;1.80;1.70;;;8.30;99.90;;;;;;5058090;28;20473;-81
2024/03/05 09:49:15;;;;;;;1.70;1.60;;;8.10;99.90;;;;;;5057476;28;20381;-81
2024/03/05 09:51:42;;;;;;;1.90;1.70;;;8.00;99.90;;;;;;5056020;28;20820;-81
2024/03/05 09:54:10;;;;;;;4.15;1.88;;;8.00;99.90;;;;;;5055922;28;20472;-81
2024/03/05 09:56:41;;;;;;;2.67;2.00;;;8.20;99.90;;;;;;5054140;28;20401;-81
2024/03/05 09:59:12;;;;;;;1.60;1.50;;;8.30;99.90;;;;;;5055644;28;20445;-81
2024/03/05 10:01:41;;;;;;;2.03;1.92;;;8.20;99.90;;;;;;5058245;28;20393;-81
2024/03/05 10:04:12;;;;;;;2.53;1.65;;;8.20;99.90;;;;;;5053822;28;20476;-81
2024/03/05 10:06:38;;;;;;;1.60;1.50;;;8.10;99.90;;;;;;5055940;28;20385;-81
2024/03/05 10:09:05;;;;;;;2.35;2.00;;;8.30;99.90;;;;;;5056135;28;20440;-82
2024/03/05 10:11:31;;;;;;;1.70;1.60;;;8.40;99.90;;;;;;5054838;28;20919;-81
2024/03/05 10:14:05;;;;;;;2.67;1.70;;;8.50;99.90;;;;;;5055148;28;20381;-81
2024/03/05 10:16:31;;;;;;;2.20;2.00;;;8.40;99.90;;;;;;5057756;28;20399;-82
2024/03/05 10:18:57;;;;;;;2.27;1.90;;;8.50;99.90;;;;;;5062763;28;20963;-80
2024/03/05 10:21:24;;;;;;;4.13;2.20;;;8.50;99.90;;;;;;5063053;28;20385;-81
2024/03/05 10:23:56;;;;;;;3.70;2.30;;;8.50;99.90;;;;;;5064665;28;20453;-81
2024/03/05 10:26:33;;;;;;;2.50;1.80;;;8.70;99.90;;;;;;5063573;28;20400;-81
2024/03/05 10:29:04;;;;;;;2.38;1.60;;;8.70;99.90;;;;;;5065401;28;20757;-80
2024/03/05 10:31:29;;;;;;;2.40;1.60;;;8.80;99.90;;;;;;5065139;28;20370;-80
2024/03/05 10:33:58;;;;;;;1.60;1.40;;;8.90;99.90;;;;;;5068705;28;20440;-79
2024/03/05 10:36:29;;;;;;;2.03;1.23;;;9.20;99.90;;;;;;5068335;28;20411;-80
2024/03/05 10:38:55;;;;;;;3.90;1.23;;;9.20;99.90;;;;;;5063669;28;20878;-81
2024/03/05 10:41:29;;;;;;;1.40;1.00;;;9.10;99.90;;;;;;5062791;28;20388;-80
2024/03/05 10:44:00;;;;;;;2.67;1.40;;;9.20;99.90;;;;;;5062339;28;20448;-81
2024/03/05 10:46:27;;;;;;;2.08;1.30;;;9.00;99.90;;;;;;5065835;28;20419;-81
2024/03/05 10:48:53;;;;;;;2.37;1.37;;;9.10;99.90;;;;;;5065439;28;20381;-80
2024/03/05 10:51:21;;;;;;;2.35;1.45;;;9.30;99.90;;;;;;5056942;28;20381;-80
2024/03/05 10:53:50;;;;;;;1.30;1.20;;;9.50;99.90;;;;;;5059156;28;20864;-81
2024/03/05 10:56:17;;;;;;;2.80;1.52;;;9.60;99.90;;;;;;5057523;28;20397;-80
2024/03/05 11:01:24;;;;;;;1.98;1.42;;;9.60;99.90;;;;;;5061321;28;20386;-82
2024/03/05 11:03:55;;;;;;;1.75;1.50;;;9.80;99.90;;;;;;5063996;28;20944;-79
2024/03/05 11:06:21;;;;;;;2.75;1.58;;;10.00;99.90;;;;;;5064451;28;20416;-80
2024/03/05 11:08:51;;;;;;;2.38;1.17;;;10.10;99.90;;;;;;5063905;28;20384;-81
2024/03/05 11:11:22;;;;;;;2.60;1.30;;;10.00;99.90;;;;;;5064225;28;20445;-82
2024/03/05 11:13:50;;;;;;;3.72;1.50;;;10.40;99.90;;;;;;5063937;28;20401;-81
2024/03/05 11:16:16;;;;;;;1.40;1.30;;;10.40;99.90;;;;;;5064227;28;20388;-80
2024/03/05 11:18:44;;;;;;;1.80;1.45;;;9.90;99.90;;;;;;5071369;28;20393;-78
2024/03/05 11:21:12;;;;;;;1.75;1.40;;;10.20;99.90;;;;;;5077831;28;20373;-78
2024/03/05 11:23:41;;;;;;;2.20;1.50;;;10.20;99.90;;;;;;5078548;28;20753;-79
2024/03/05 11:26:07;;;;;;;2.75;1.60;;;10.30;99.90;;;;;;5072320;28;20421;-81
2024/03/05 11:28:35;;;;;;;1.70;1.40;;;10.30;99.90;;;;;;5064812;28;20404;-82
2024/03/05 11:31:18;;;;;;;2.17;1.50;;;10.50;99.90;;;;;;5063237;28;20393;-81
2024/03/05 11:33:44;;;;;;;2.55;1.67;;;10.90;99.90;;;;;;5066860;28;20382;-80
2024/03/05 11:36:17;;;;;;;2.70;1.83;;;11.30;99.90;;;;;;5076651;28;20381;-78
2024/03/05 11:38:57;;;;;;;2.95;1.60;;;11.30;99.90;;;;;;5077607;28;20431;-79
2024/03/05 11:41:24;;;;;;;1.42;1.30;;;11.40;99.90;;;;;;5069741;28;20435;-80
2024/03/05 11:43:49;;;;;;;3.30;1.70;;;12.50;99.90;;;;;;5069718;28;20575;-80
2024/03/05 11:46:45;;;;;;;2.20;1.40;;;12.20;99.90;;;;;;5071123;28;20385;-79
2024/03/05 11:49:11;;;;;;;1.38;1.27;;;12.40;99.90;;;;;;5070900;28;20480;-79
2024/03/05 11:51:39;;;;;;;3.25;1.50;;;12.20;99.90;;;;;;5071077;28;20417;-79
2024/03/05 11:54:05;;;;;;;2.67;1.40;;;12.30;99.90;;;;;;5071471;28;20415;-79
2024/03/05 11:56:31;;;;;;;1.20;1.10;;;12.30;99.90;;;;;;5071027;28;20450;-79
2024/03/05 11:58:57;;;;;;;2.58;1.20;;;13.00;99.90;;;;;;5065739;28;20401;-81
2024/03/05 12:01:23;;;;;;;2.50;1.50;;;13.10;99.90;;;;;;5063761;28;20385;-81
2024/03/05 12:04:06;;;;;;;2.28;1.50;;;12.60;99.90;;;;;;5063447;28;20917;-82
2024/03/05 12:06:32;;;;;;;1.67;1.53;;;12.40;99.90;;;;;;5062739;28;20405;-81
2024/03/05 12:09:18;;;;;;;1.92;1.40;;;12.10;99.90;;;;;;5068057;28;20413;-81
2024/03/05 12:12:11;;;;;;;1.70;1.58;;;12.40;99.90;;;;;;5065481;28;20378;-81
2024/03/05 12:14:39;;;;;;;2.63;1.40;;;12.20;99.90;;;;;;5064138;28;20417;-80
2024/03/05 12:17:12;;;;;;;1.67;1.42;;;12.40;99.90;;;;;;5065479;28;20460;-81
2024/03/05 12:19:39;;;;;;;1.73;1.40;;;12.00;99.90;;;;;;5065405;28;20404;-80
2024/03/05 12:22:07;;;;;;;3.00;1.60;;;11.60;99.90;;;;;;5065518;28;20400;-80
2024/03/05 12:24:33;;;;;;;2.50;1.30;;;11.30;99.90;;;;;;5058722;28;20438;-81
2024/03/05 12:26:58;;;;;;;2.15;1.25;;;11.20;99.90;;;;;;5064231;28;20382;-82
2024/03/05 12:29:27;;;;;;;2.33;1.20;;;10.80;99.90;;;;;;5063282;28;20420;-82
2024/03/05 12:31:55;;;;;;;3.80;1.40;;;10.70;99.90;;;;;;5060344;28;20393;-81
2024/03/05 12:34:21;;;;;;;1.75;1.30;;;10.50;99.90;;;;;;5060928;28;20416;-82
2024/03/05 12:36:49;;;;;;;2.15;1.10;;;10.60;99.90;;;;;;5060245;28;20389;-80
2024/03/05 12:39:18;;;;;;;2.83;1.70;;;10.70;99.90;;;;;;5062176;28;20393;-81
2024/03/05 12:41:45;;;;;;;2.80;1.55;;;10.70;99.90;;;;;;5057086;28;20394;-82
2024/03/05 12:44:21;;;;;;;6.18;1.60;;;10.70;99.90;;;;;;5061970;28;20413;-81
2024/03/05 12:46:46;;;;;;;2.55;1.23;;;10.70;99.90;;;;;;5059451;28;20394;-81
2024/03/05 12:49:14;;;;;;;2.90;1.43;;;10.70;99.90;;;;;;5060350;28;20374;-81
2024/03/05 12:51:40;;;;;;;1.90;1.10;;;10.40;99.90;;;;;;5059656;28;20468;-81
2024/03/05 12:54:06;;;;;;;3.67;1.77;;;10.60;99.90;;;;;;5059706;28;20758;-80
2024/03/05 12:56:40;;;;;;;2.80;1.13;;;11.10;99.90;;;;;;5060234;28;20411;-80
2024/03/05 12:59:06;;;;;;;1.88;1.20;;;11.80;99.90;;;;;;5059178;28;20381;-82